createdAt,value
2022-09-11T00:00:39.128Z,100897.78
2022-09-11T00:03:05.556Z,100903.88
2022-09-11T00:05:32.027Z,100900.34
2022-09-11T00:07:58.457Z,100898.16
2022-09-11T00:10:24.835Z,100902.44
2022-09-11T00:12:51.285Z,100906.69
2022-09-11T00:15:17.685Z,100908.88
2022-09-11T00:17:44.096Z,100909.41
2022-09-11T00:20:10.494Z,100916.13
2022-09-11T00:22:36.875Z,100914.22
2022-09-11T00:25:03.446Z,100914.97
2022-09-11T00:27:29.838Z,100908.56
2022-09-11T00:29:56.237Z,100915.16
2022-09-11T00:32:23.901Z,100913.78
2022-09-11T00:34:50.326Z,100918.19
2022-09-11T00:37:16.733Z,100912.97
2022-09-11T00:39:43.185Z,100920.34
2022-09-11T00:42:10.055Z,100924.16
2022-09-11T00:44:37.769Z,100919.91
2022-09-11T00:47:09.585Z,100920.84
2022-09-11T00:49:48.550Z,100923.75
2022-09-11T00:53:08.660Z,100920.28
2022-09-11T00:55:37.146Z,100918.56
2022-09-11T00:58:07.237Z,100918.38
2022-09-11T01:00:33.910Z,100922.66
2022-09-11T01:03:00.437Z,100923.44
2022-09-11T01:05:28.668Z,100931.56
2022-09-11T01:07:56.007Z,100936.22
2022-09-11T01:10:46.974Z,100933.00
2022-09-11T01:13:25.341Z,100929.13
2022-09-11T01:16:03.718Z,100936.00
2022-09-11T01:18:32.254Z,100945.28
2022-09-11T01:21:34.403Z,100947.09
2022-09-11T01:24:11.500Z,100941.72
2022-09-11T01:27:06.927Z,100942.50
2022-09-11T01:29:44.938Z,100955.91
2022-09-11T01:32:24.963Z,100957.28
2022-09-11T01:34:54.386Z,100957.56
2022-09-11T01:37:31.228Z,100958.06
2022-09-11T01:40:02.054Z,100966.66
2022-09-11T01:42:31.409Z,100969.53
2022-09-11T01:44:57.903Z,100967.16
2022-09-11T01:47:25.830Z,100959.13
2022-09-11T01:49:57.595Z,100970.28
2022-09-11T01:52:28.113Z,100973.59
2022-09-11T01:54:59.676Z,100972.06
2022-09-11T01:57:37.669Z,100971.28
2022-09-11T02:00:08.071Z,100973.09
2022-09-11T02:02:36.311Z,100963.31
2022-09-11T02:05:15.531Z,100965.50
2022-09-11T02:08:03.675Z,100969.94
2022-09-11T02:10:34.657Z,100975.16
2022-09-11T02:13:11.068Z,100978.47
2022-09-11T02:15:44.539Z,100979.97
2022-09-11T02:18:17.510Z,100988.41
2022-09-11T02:20:47.474Z,100982.19
2022-09-11T02:23:15.256Z,100981.97
2022-09-11T02:25:41.666Z,100986.47
2022-09-11T02:28:08.099Z,100989.69
2022-09-11T02:30:34.556Z,100992.31
2022-09-11T02:33:01.676Z,100992.72
2022-09-11T02:35:37.086Z,100990.66
2022-09-11T02:38:31.962Z,100992.38
2022-09-11T02:41:16.422Z,100997.16
2022-09-11T02:43:49.686Z,100993.50
2022-09-11T02:46:37.410Z,101003.91
2022-09-11T02:49:10.778Z,101002.81
2022-09-11T02:52:00.421Z,101003.91
2022-09-11T02:54:31.476Z,101007.22
2022-09-11T02:57:22.081Z,101011.41
2022-09-11T03:00:00.224Z,101004.78
2022-09-11T03:02:27.707Z,101008.97
2022-09-11T03:04:54.126Z,101010.94
2022-09-11T03:07:20.554Z,101012.50
2022-09-11T03:09:46.942Z,101010.63
2022-09-11T03:12:13.397Z,101012.41
2022-09-11T03:14:39.815Z,101007.59
2022-09-11T03:17:06.455Z,101007.59
2022-09-11T03:19:32.910Z,101008.31
2022-09-11T03:22:14.634Z,101013.81
2022-09-11T03:24:41.040Z,101009.81
2022-09-11T03:27:07.428Z,101007.81
2022-09-11T03:29:33.863Z,101017.91
2022-09-11T03:32:00.791Z,101015.22
2022-09-11T03:34:27.215Z,101011.41
2022-09-11T03:37:08.286Z,101013.72
2022-09-11T03:39:34.766Z,101010.19
2022-09-11T03:42:01.211Z,101023.00
2022-09-11T03:44:27.630Z,101017.00
2022-09-11T03:46:54.094Z,101012.00
2022-09-11T03:49:20.509Z,101019.00
2022-09-11T03:51:47.809Z,101013.13
2022-09-11T03:54:16.028Z,101019.34
2022-09-11T03:56:43.011Z,101013.47
2022-09-11T03:59:09.472Z,101011.06
2022-09-11T04:01:35.922Z,101019.59
2022-09-11T04:04:04.100Z,101018.16
2022-09-11T04:06:32.559Z,101025.38
2022-09-11T04:08:59.060Z,101029.28
2022-09-11T04:11:25.512Z,101024.81
2022-09-11T04:17:38.394Z,101026.81
2022-09-11T04:20:05.495Z,101032.19
2022-09-11T04:22:31.933Z,101046.41
2022-09-11T04:24:58.336Z,101051.72
2022-09-11T04:27:24.887Z,101049.91
2022-09-11T04:29:51.808Z,101056.84
2022-09-11T04:32:18.238Z,101059.38
2022-09-11T04:34:44.785Z,101059.47
2022-09-11T04:37:11.555Z,101070.38
2022-09-11T04:39:37.984Z,101071.56
2022-09-11T04:42:04.633Z,101073.88
2022-09-11T04:44:32.420Z,101074.56
2022-09-11T04:46:59.124Z,101085.59
2022-09-11T04:49:25.509Z,101083.19
2022-09-11T04:52:49.838Z,101080.47
2022-09-11T04:55:16.250Z,101077.41
2022-09-11T04:57:42.696Z,101080.66
2022-09-11T05:00:12.927Z,101076.66
2022-09-11T05:02:40.476Z,101078.66
2022-09-11T05:05:09.022Z,101073.69
2022-09-11T05:07:35.874Z,101073.88
2022-09-11T05:10:03.008Z,101075.38
2022-09-11T05:12:31.792Z,101070.34
2022-09-11T05:14:59.003Z,101071.63
2022-09-11T05:17:25.443Z,101066.16
2022-09-11T05:19:51.827Z,101083.25
2022-09-11T05:22:18.213Z,101080.47
2022-09-11T05:24:44.600Z,101087.06
2022-09-11T05:27:12.180Z,101082.38
2022-09-11T05:29:39.143Z,101092.38
2022-09-11T05:32:05.974Z,101093.69
2022-09-11T05:34:32.560Z,101092.88
2022-09-11T05:36:59.080Z,101096.69
2022-09-11T05:39:25.494Z,101100.69
2022-09-11T05:45:38.515Z,101108.78
2022-09-11T05:48:04.966Z,101116.91
2022-09-11T05:50:32.687Z,101120.13
2022-09-11T05:52:59.078Z,101129.13
2022-09-11T05:55:25.486Z,101133.63
2022-09-11T05:57:52.630Z,101134.63
2022-09-11T06:00:19.360Z,101128.16
2022-09-11T06:02:45.937Z,101132.75
2022-09-11T06:05:12.565Z,101136.94
2022-09-11T06:07:39.011Z,101129.03
2022-09-11T06:10:05.805Z,101132.22
2022-09-11T06:12:32.278Z,101134.72
2022-09-11T06:14:58.666Z,101134.81
2022-09-11T06:17:25.115Z,101141.19
2022-09-11T06:19:51.587Z,101150.78
2022-09-11T06:23:09.369Z,101149.56
2022-09-11T06:25:36.681Z,101154.00
2022-09-11T06:28:03.886Z,101155.59
2022-09-11T06:30:30.482Z,101153.59
2022-09-11T06:32:57.611Z,101153.41
2022-09-11T06:35:24.039Z,101154.88
2022-09-11T06:37:50.709Z,101164.59
2022-09-11T06:44:05.099Z,101181.81
2022-09-11T06:46:31.654Z,101175.41
2022-09-11T06:48:58.128Z,101173.53
2022-09-11T06:51:24.600Z,101185.53
2022-09-11T06:53:57.791Z,101182.63
2022-09-11T06:56:24.671Z,101186.47
2022-09-11T06:58:51.080Z,101191.25
2022-09-11T07:01:19.154Z,101190.16
2022-09-11T07:03:50.891Z,101193.06
2022-09-11T07:06:19.755Z,101189.34
2022-09-11T07:08:54.621Z,101193.25
2022-09-11T07:11:21.337Z,101183.03
2022-09-11T07:13:50.246Z,101183.72
2022-09-11T07:16:17.163Z,101177.81
2022-09-11T07:18:46.922Z,101185.03
2022-09-11T07:21:20.911Z,101182.84
2022-09-11T07:23:49.570Z,101190.84
2022-09-11T07:26:16.672Z,101180.84
2022-09-11T07:28:43.059Z,101191.75
2022-09-11T07:31:12.288Z,101192.47
2022-09-11T07:33:40.088Z,101187.25
2022-09-11T07:36:10.563Z,101191.06
2022-09-11T07:38:36.951Z,101194.66
2022-09-11T07:41:03.357Z,101202.25
2022-09-11T07:43:29.742Z,101200.84
2022-09-11T07:45:56.549Z,101206.47
2022-09-11T07:48:23.063Z,101216.97
2022-09-11T07:54:36.678Z,101221.41
2022-09-11T07:57:03.149Z,101221.69
2022-09-11T07:59:30.856Z,101224.97
2022-09-11T08:01:57.314Z,101222.78
2022-09-11T08:04:23.779Z,101227.78
2022-09-11T08:07:10.639Z,101229.25
2022-09-11T08:13:18.254Z,101228.19
2022-09-11T08:15:48.316Z,101240.06
2022-09-11T08:18:15.043Z,101236.59
2022-09-11T08:20:41.921Z,101236.09
2022-09-11T08:23:09.493Z,101238.41
2022-09-11T08:25:39.133Z,101234.63
2022-09-11T08:28:06.094Z,101235.13
2022-09-11T08:30:33.184Z,101242.34
2022-09-11T08:33:01.331Z,101244.44
2022-09-11T08:35:39.167Z,101249.56
2022-09-11T08:38:05.624Z,101246.81
2022-09-11T08:40:37.978Z,101258.19
2022-09-11T08:43:04.838Z,101255.41
2022-09-11T08:45:34.541Z,101247.59
2022-09-11T08:51:49.927Z,101240.78
2022-09-11T08:54:29.015Z,101250.06
2022-09-11T08:57:42.078Z,101250.50
2022-09-11T09:00:16.326Z,101258.63
2022-09-11T09:03:02.490Z,101270.63
2022-09-11T09:09:23.685Z,101266.03
2022-09-11T09:12:00.539Z,101277.06
2022-09-11T09:14:30.148Z,101281.38
2022-09-11T09:16:59.485Z,101281.56
2022-09-11T09:19:40.180Z,101279.88
2022-09-11T09:22:50.991Z,101277.25
2022-09-11T09:25:22.548Z,101273.41
2022-09-11T09:27:52.379Z,101273.84
2022-09-11T09:30:24.564Z,101270.03
2022-09-11T09:32:50.832Z,101279.88
2022-09-11T09:35:27.041Z,101279.75
2022-09-11T09:37:54.173Z,101283.34
2022-09-11T09:40:20.621Z,101284.66
2022-09-11T09:42:57.675Z,101280.84
2022-09-11T09:45:39.366Z,101281.25
2022-09-11T09:48:08.770Z,101276.00
2022-09-11T09:50:41.709Z,101283.06
2022-09-11T09:53:38.029Z,101275.78
2022-09-11T09:56:05.380Z,101276.47
2022-09-11T09:58:34.715Z,101282.19
2022-09-11T10:01:01.237Z,101285.00
2022-09-11T10:03:27.993Z,101281.91
2022-09-11T10:05:55.923Z,101281.84
2022-09-11T10:08:35.485Z,101285.84
2022-09-11T10:11:07.478Z,101286.53
2022-09-11T10:13:37.768Z,101283.91
2022-09-11T10:16:05.829Z,101278.81
2022-09-11T10:18:35.879Z,101271.72
2022-09-11T10:21:11.410Z,101279.97
2022-09-11T10:23:54.697Z,101278.16
2022-09-11T10:26:37.350Z,101278.38
2022-09-11T10:29:13.310Z,101275.56
2022-09-11T10:31:40.972Z,101275.63
2022-09-11T10:34:14.901Z,101285.22
2022-09-11T10:36:52.259Z,101284.75
2022-09-11T10:39:20.061Z,101278.16
2022-09-11T10:41:49.765Z,101274.97
2022-09-11T10:44:16.857Z,101276.03
2022-09-11T10:46:45.119Z,101277.66
2022-09-11T10:49:11.467Z,101273.50
2022-09-11T10:51:41.340Z,101273.50
2022-09-11T10:54:16.685Z,101276.75
2022-09-11T10:57:18.518Z,101273.41
2022-09-11T11:00:14.995Z,101274.22
2022-09-11T11:02:44.663Z,101278.00
2022-09-11T11:05:19.836Z,101275.41
2022-09-11T11:08:07.656Z,101281.31
2022-09-11T11:11:14.749Z,101279.19
2022-09-11T11:13:57.875Z,101276.75
2022-09-11T11:16:39.631Z,101276.59
2022-09-11T11:19:32.110Z,101281.81
2022-09-11T11:22:03.928Z,101285.22
2022-09-11T11:24:48.727Z,101287.50
2022-09-11T11:27:33.811Z,101280.56
2022-09-11T11:30:19.386Z,101280.00
2022-09-11T11:33:27.068Z,101291.44
2022-09-11T11:36:10.849Z,101282.25
2022-09-11T11:39:07.342Z,101286.03
2022-09-11T11:41:44.525Z,101288.03
2022-09-11T11:44:15.707Z,101276.13
2022-09-11T11:46:45.994Z,101263.81
2022-09-11T11:49:19.689Z,101259.38
2022-09-11T11:52:01.323Z,101264.81
2022-09-11T11:54:38.756Z,101264.56
2022-09-11T11:57:26.498Z,101257.22
2022-09-11T12:00:07.222Z,101247.59
2022-09-11T12:02:39.741Z,101236.00
2022-09-11T12:05:17.260Z,101246.53
2022-09-11T12:07:47.297Z,101250.44
2022-09-11T12:10:24.327Z,101248.78
2022-09-11T12:12:54.258Z,101250.59
2022-09-11T12:15:22.719Z,101252.75
2022-09-11T12:18:00.316Z,101262.91
2022-09-11T12:20:34.171Z,101257.16
2022-09-11T12:23:01.089Z,101260.09
2022-09-11T12:25:31.052Z,101254.63
2022-09-11T12:28:25.696Z,101260.03
2022-09-11T12:31:12.789Z,101256.75
2022-09-11T12:33:47.117Z,101256.72
2022-09-11T12:36:17.395Z,101256.56
2022-09-11T12:38:49.631Z,101257.66
2022-09-11T12:41:23.417Z,101253.06
2022-09-11T12:43:50.008Z,101254.09
2022-09-11T12:46:22.371Z,101236.47
2022-09-11T12:49:11.399Z,101230.09
2022-09-11T12:51:40.202Z,101222.03
2022-09-11T12:54:22.519Z,101213.38
2022-09-11T12:57:16.206Z,101205.50
2022-09-11T12:59:44.276Z,101193.06
2022-09-11T13:02:28.699Z,101187.28
2022-09-11T13:04:55.637Z,101190.13
2022-09-11T13:07:31.147Z,101185.09
2022-09-11T13:10:01.386Z,101181.97
2022-09-11T13:12:27.702Z,101179.31
2022-09-11T13:14:58.046Z,101181.88
2022-09-11T13:17:34.405Z,101172.44
2022-09-11T13:20:07.750Z,101169.59
2022-09-11T13:22:35.178Z,101169.03
2022-09-11T13:25:16.624Z,101173.25
2022-09-11T13:27:49.953Z,101161.16
2022-09-11T13:30:19.287Z,101163.41
2022-09-11T13:36:34.658Z,101150.34
2022-09-11T13:39:02.761Z,101143.03
2022-09-11T13:45:15.814Z,101132.84
2022-09-11T13:51:34.768Z,101126.38
2022-09-11T13:54:09.226Z,101133.47
2022-09-11T13:56:48.612Z,101124.63
2022-09-11T14:00:00.473Z,101134.78
2022-09-11T14:02:37.205Z,101135.84
2022-09-11T14:05:13.771Z,101132.28
2022-09-11T14:07:47.562Z,101125.00
2022-09-11T14:10:21.568Z,101133.06
2022-09-11T14:13:04.401Z,101129.06
2022-09-11T14:15:43.843Z,101121.75
2022-09-11T14:21:51.461Z,101107.69
2022-09-11T14:24:32.761Z,101104.00
2022-09-11T14:27:01.584Z,101109.06
2022-09-11T14:29:31.330Z,101112.56
2022-09-11T14:32:33.019Z,101105.31
2022-09-11T14:34:59.883Z,101109.53
2022-09-11T14:41:14.006Z,101089.50
2022-09-11T14:43:40.567Z,101097.03
2022-09-11T14:46:07.125Z,101104.69
2022-09-11T14:48:34.863Z,101102.31
2022-09-11T14:51:02.397Z,101100.78
2022-09-11T14:53:30.915Z,101097.41
2022-09-11T14:56:01.289Z,101102.72
2022-09-11T14:58:28.918Z,101107.34
2022-09-11T15:00:56.069Z,101104.13
2022-09-11T15:03:24.081Z,101106.06
2022-09-11T15:05:56.493Z,101109.72
2022-09-11T15:08:23.944Z,101105.00
2022-09-11T15:10:53.382Z,101108.78
2022-09-11T15:13:21.054Z,101085.50
2022-09-11T15:15:47.648Z,101087.38
2022-09-11T15:18:14.181Z,101087.38
2022-09-11T15:20:40.647Z,101087.53
2022-09-11T15:23:07.288Z,101090.00
2022-09-11T15:25:33.798Z,101086.88
2022-09-11T15:28:00.265Z,101085.22
2022-09-11T15:30:27.736Z,101085.84
2022-09-11T15:32:54.933Z,101071.72
2022-09-11T15:39:13.586Z,101054.88
2022-09-11T15:41:40.383Z,101050.81
2022-09-11T15:44:11.909Z,101036.09
2022-09-11T15:46:38.395Z,101038.28
2022-09-11T15:49:06.468Z,101028.56
2022-09-11T15:55:20.338Z,101035.63
2022-09-11T15:57:46.721Z,101024.88
2022-09-11T16:00:15.120Z,101027.66
2022-09-11T16:02:42.055Z,101028.47
2022-09-11T16:05:08.625Z,101033.03
2022-09-11T16:07:35.032Z,101034.34
2022-09-11T16:10:01.472Z,101024.03
2022-09-11T16:12:28.553Z,101023.22
2022-09-11T16:14:55.444Z,101022.34
2022-09-11T16:21:03.127Z,101023.25
2022-09-11T16:23:29.551Z,101023.19
2022-09-11T16:30:20.254Z,101039.25
2022-09-11T16:32:31.822Z,101035.97
2022-09-11T16:38:46.187Z,101037.91
2022-09-11T16:41:18.792Z,101038.69
2022-09-11T16:43:50.953Z,101033.19
2022-09-11T16:46:22.243Z,101039.88
2022-09-11T16:48:53.683Z,101037.03
2022-09-11T16:55:09.646Z,101025.94
2022-09-11T16:57:36.130Z,101024.63
2022-09-11T17:00:03.781Z,101023.81
2022-09-11T17:02:30.283Z,101036.44
2022-09-11T17:04:56.740Z,101035.88
2022-09-11T17:07:23.858Z,101033.75
2022-09-11T17:09:51.673Z,101041.59
2022-09-11T17:12:18.226Z,101040.78
2022-09-11T17:14:44.651Z,101040.28
2022-09-11T17:17:11.110Z,101040.63
2022-09-11T17:19:37.609Z,101040.28
2022-09-11T17:22:04.030Z,101047.69
2022-09-11T17:24:32.229Z,101042.31
2022-09-11T17:26:58.871Z,101047.41
2022-09-11T17:29:25.305Z,101039.41
2022-09-11T17:32:05.037Z,101040.34
2022-09-11T17:34:38.238Z,101035.16
2022-09-11T17:40:56.732Z,101049.94
2022-09-11T17:43:23.732Z,101043.75
2022-09-11T17:45:52.271Z,101045.72
2022-09-11T17:48:19.862Z,101046.47
2022-09-11T17:50:47.347Z,101044.50
2022-09-11T17:53:13.775Z,101052.13
2022-09-11T17:55:41.258Z,101051.94
2022-09-11T17:58:08.144Z,101056.22
2022-09-11T18:01:36.267Z,101060.41
2022-09-11T18:04:03.244Z,101059.66
2022-09-11T18:06:51.741Z,101057.66
2022-09-11T18:09:19.730Z,101056.41
2022-09-11T18:11:54.510Z,101060.53
2022-09-11T18:14:20.956Z,101063.88
2022-09-11T18:16:47.899Z,101064.69
2022-09-11T18:19:16.082Z,101067.81
2022-09-11T18:21:44.686Z,101069.06
2022-09-11T18:24:19.893Z,101067.41
2022-09-11T18:26:50.770Z,101074.50
2022-09-11T18:29:20.087Z,101071.34
2022-09-11T18:31:51.892Z,101068.66
2022-09-11T18:34:23.344Z,101072.47
2022-09-11T18:36:49.850Z,101070.22
2022-09-11T18:39:20.969Z,101077.09
2022-09-11T18:41:48.372Z,101069.50
2022-09-11T18:44:19.790Z,101074.91
2022-09-11T18:46:47.041Z,101076.22
2022-09-11T18:49:15.036Z,101082.44
2022-09-11T18:51:42.357Z,101084.19
2022-09-11T18:54:16.167Z,101078.94
2022-09-11T18:56:43.467Z,101082.91
2022-09-11T18:59:11.385Z,101076.97
2022-09-11T19:01:39.000Z,101076.41
2022-09-11T19:04:07.677Z,101074.94
2022-09-11T19:06:34.392Z,101073.75
2022-09-11T19:09:01.721Z,101074.03
2022-09-11T19:11:30.079Z,101065.53
2022-09-11T19:14:02.305Z,101058.03
2022-09-11T19:16:28.832Z,101067.69
2022-09-11T19:18:55.407Z,101054.53
2022-09-11T19:21:23.411Z,101063.09
2022-09-11T19:23:53.100Z,101062.16
2022-09-11T19:26:22.399Z,101063.84
2022-09-11T19:28:50.278Z,101070.06
2022-09-11T19:31:21.139Z,101076.34
2022-09-11T19:33:48.398Z,101073.84
2022-09-11T19:36:21.233Z,101078.03
2022-09-11T19:38:49.555Z,101072.34
2022-09-11T19:41:18.816Z,101082.53
2022-09-11T19:43:45.775Z,101083.78
2022-09-11T19:46:15.055Z,101076.41
2022-09-11T19:48:43.379Z,101081.59
2022-09-11T19:51:21.202Z,101092.28
2022-09-11T19:57:28.209Z,101083.28
2022-09-11T19:59:54.615Z,101089.94
2022-09-11T20:02:22.426Z,101087.50
2022-09-11T20:04:48.927Z,101088.56
2022-09-11T20:07:15.398Z,101089.19
2022-09-11T20:09:42.786Z,101094.03
2022-09-11T20:12:09.277Z,101094.41
2022-09-11T20:18:16.253Z,101104.88
2022-09-11T20:20:45.417Z,101107.75
2022-09-11T20:23:12.188Z,101109.78
2022-09-11T20:25:38.660Z,101110.03
2022-09-11T20:28:05.125Z,101105.34
2022-09-11T20:30:32.605Z,101107.81
2022-09-11T20:36:46.617Z,101109.13
2022-09-11T20:39:13.682Z,101101.91
2022-09-11T20:45:27.645Z,101108.09
2022-09-11T20:47:54.070Z,101100.66
2022-09-11T20:50:20.655Z,101099.75
2022-09-11T20:52:47.197Z,101100.94
2022-09-11T20:55:13.636Z,101093.81
2022-09-11T20:57:40.071Z,101100.84
2022-09-11T21:00:07.338Z,101097.50
2022-09-11T21:02:33.779Z,101096.72
2022-09-11T21:05:00.742Z,101094.03
2022-09-11T21:07:27.284Z,101094.63
2022-09-11T21:13:36.020Z,101084.94
2022-09-11T21:16:08.120Z,101085.53
2022-09-11T21:18:34.915Z,101083.84
2022-09-11T21:21:04.755Z,101088.03
2022-09-11T21:23:31.421Z,101088.03
2022-09-11T21:25:58.284Z,101091.44
2022-09-11T21:28:24.765Z,101092.28
2022-09-11T21:30:51.246Z,101088.34
2022-09-11T21:33:17.741Z,101092.84
2022-09-11T21:35:44.189Z,101088.72
2022-09-11T21:38:10.713Z,101075.00
2022-09-11T21:40:37.136Z,101075.34
2022-09-11T21:43:04.353Z,101072.72
2022-09-11T21:45:30.788Z,101075.25
2022-09-11T21:47:57.271Z,101082.47
2022-09-11T21:50:23.730Z,101079.97
2022-09-11T21:52:50.166Z,101076.06
2022-09-11T21:55:16.956Z,101074.47
2022-09-11T21:57:43.397Z,101075.16
2022-09-11T22:00:13.327Z,101076.28
2022-09-11T22:02:40.236Z,101073.03
2022-09-11T22:05:07.277Z,101060.25
2022-09-11T22:07:34.352Z,101070.50
2022-09-11T22:10:01.433Z,101072.75
2022-09-11T22:12:28.286Z,101074.38
2022-09-11T22:14:54.943Z,101073.47
2022-09-11T22:17:22.115Z,101073.38
2022-09-11T22:19:48.613Z,101076.66
2022-09-11T22:22:15.026Z,101071.78
2022-09-11T22:24:41.609Z,101068.75
2022-09-11T22:27:09.371Z,101078.88
2022-09-11T22:29:35.900Z,101080.88
2022-09-11T22:32:03.295Z,101070.66
2022-09-11T22:34:32.626Z,101073.97
2022-09-11T22:36:59.092Z,101073.88
2022-09-11T22:39:25.500Z,101066.38
2022-09-11T22:41:52.232Z,101068.38
2022-09-11T22:44:19.776Z,101072.47
2022-09-11T22:46:48.937Z,101075.19
2022-09-11T22:53:02.706Z,101079.16
2022-09-11T22:55:29.131Z,101079.22
2022-09-11T22:57:55.543Z,101081.63
2022-09-11T23:00:22.086Z,101067.88
2022-09-11T23:02:48.489Z,101071.75
2022-09-11T23:05:33.505Z,101074.88
2022-09-11T23:07:59.999Z,101071.75
2022-09-11T23:10:26.577Z,101070.97
2022-09-11T23:12:53.093Z,101086.06
2022-09-11T23:15:19.927Z,101079.06
2022-09-11T23:17:46.839Z,101076.25
2022-09-11T23:20:13.319Z,101076.72
2022-09-11T23:22:39.727Z,101077.22
2022-09-11T23:25:07.155Z,101078.41
2022-09-11T23:27:33.625Z,101076.53
2022-09-11T23:30:00.050Z,101070.50
2022-09-11T23:32:26.501Z,101070.63
2022-09-11T23:34:52.933Z,101074.66
2022-09-11T23:37:19.467Z,101069.25
2022-09-11T23:39:46.641Z,101064.44
2022-09-11T23:45:59.740Z,101061.00
2022-09-11T23:48:26.183Z,101067.81
2022-09-11T23:50:52.690Z,101066.06
2022-09-11T23:53:19.167Z,101064.03
2022-09-11T23:55:51.622Z,101067.91
2022-09-11T23:58:18.056Z,101058.94
